sensor_id;sensor_type;location;lat;lon;timestamp;temperature;humidity
5792;DHT22;2922;53.482;10.006;2023-03-08T00:00:08;0.30;99.90
5792;DHT22;2922;53.482;10.006;2023-03-08T00:02:35;0.30;99.90
5792;DHT22;2922;53.482;10.006;2023-03-08T00:05:01;0.20;99.90
5792;DHT22;2922;53.482;10.006;2023-03-08T00:07:27;0.20;99.90
5792;DHT22;2922;53.482;10.006;2023-03-08T00:09:53;0.20;99.90
5792;DHT22;2922;53.482;10.006;2023-03-08T00:12:18;0.20;99.90
5792;DHT22;2922;53.482;10.006;2023-03-08T00:14:44;0.20;99.90
5792;DHT22;2922;53.482;10.006;2023-03-08T00:17:10;0.20;99.90
5792;DHT22;2922;53.482;10.006;2023-03-08T00:19:37;0.10;99.90
5792;DHT22;2922;53.482;10.006;2023-03-08T00:22:03;0.20;99.90
5792;DHT22;2922;53.482;10.006;2023-03-08T00:24:29;0.10;99.90
5792;DHT22;2922;53.482;10.006;2023-03-08T00:26:55;0.10;99.90
5792;DHT22;2922;53.482;10.006;2023-03-08T00:29:21;0.10;99.90
5792;DHT22;2922;53.482;10.006;2023-03-08T00:31:46;0.10;99.90
5792;DHT22;2922;53.482;10.006;2023-03-08T00:34:12;0.10;99.90
5792;DHT22;2922;53.482;10.006;2023-03-08T00:36:38;0.10;99.90
5792;DHT22;2922;53.482;10.006;2023-03-08T00:39:04;0.10;99.90
5792;DHT22;2922;53.482;10.006;2023-03-08T00:41:29;0.00;99.90
5792;DHT22;2922;53.482;10.006;2023-03-08T00:43:55;0.00;99.90
5792;DHT22;2922;53.482;10.006;2023-03-08T00:46:21;0.00;99.90
5792;DHT22;2922;53.482;10.006;2023-03-08T00:48:46;0.00;99.90
5792;DHT22;2922;53.482;10.006;2023-03-08T00:51:17;-0.10;99.90
5792;DHT22;2922;53.482;10.006;2023-03-08T00:53:43;-0.10;99.90
5792;DHT22;2922;53.482;10.006;2023-03-08T00:56:08;-0.10;99.90
5792;DHT22;2922;53.482;10.006;2023-03-08T00:58:36;0.00;99.90
5792;DHT22;2922;53.482;10.006;2023-03-08T01:01:02;-0.10;99.90
5792;DHT22;2922;53.482;10.006;2023-03-08T01:03:28;-0.10;99.90
5792;DHT22;2922;53.482;10.006;2023-03-08T01:05:55;-0.10;99.90
5792;DHT22;2922;53.482;10.006;2023-03-08T01:08:22;-0.10;99.90
5792;DHT22;2922;53.482;10.006;2023-03-08T01:10:49;-0.10;99.90
5792;DHT22;2922;53.482;10.006;2023-03-08T01:13:16;-0.10;99.90
5792;DHT22;2922;53.482;10.006;2023-03-08T01:15:42;-0.10;99.90
5792;DHT22;2922;53.482;10.006;2023-03-08T01:18:08;-0.10;99.90
5792;DHT22;2922;53.482;10.006;2023-03-08T01:20:33;-0.10;99.90
5792;DHT22;2922;53.482;10.006;2023-03-08T01:22:59;-0.10;99.90
5792;DHT22;2922;53.482;10.006;2023-03-08T01:25:25;-0.10;99.90
5792;DHT22;2922;53.482;10.006;2023-03-08T01:27:50;-0.10;99.90
5792;DHT22;2922;53.482;10.006;2023-03-08T01:30:16;-0.10;99.90
5792;DHT22;2922;53.482;10.006;2023-03-08T01:32:42;-0.10;99.90
5792;DHT22;2922;53.482;10.006;2023-03-08T01:35:08;-0.10;99.90
5792;DHT22;2922;53.482;10.006;2023-03-08T01:37:33;-0.10;99.90
5792;DHT22;2922;53.482;10.006;2023-03-08T01:39:59;-0.10;99.90
5792;DHT22;2922;53.482;10.006;2023-03-08T01:42:25;-0.10;99.90
5792;DHT22;2922;53.482;10.006;2023-03-08T01:47:19;-0.10;99.90
5792;DHT22;2922;53.482;10.006;2023-03-08T01:49:45;-0.20;99.90
5792;DHT22;2922;53.482;10.006;2023-03-08T01:52:21;-0.20;99.90
5792;DHT22;2922;53.482;10.006;2023-03-08T01:54:54;-0.20;99.90
5792;DHT22;2922;53.482;10.006;2023-03-08T01:57:27;-0.20;99.90
5792;DHT22;2922;53.482;10.006;2023-03-08T01:59:55;-0.20;99.90
5792;DHT22;2922;53.482;10.006;2023-03-08T02:02:30;-0.20;99.90
5792;DHT22;2922;53.482;10.006;2023-03-08T02:04:58;-0.20;99.90
5792;DHT22;2922;53.482;10.006;2023-03-08T02:07:24;-0.20;99.90
5792;DHT22;2922;53.482;10.006;2023-03-08T02:09:49;-0.20;99.90
5792;DHT22;2922;53.482;10.006;2023-03-08T02:12:15;-0.20;99.90
5792;DHT22;2922;53.482;10.006;2023-03-08T02:14:42;-0.20;99.90
5792;DHT22;2922;53.482;10.006;2023-03-08T02:17:09;-0.20;99.90
5792;DHT22;2922;53.482;10.006;2023-03-08T02:19:40;-0.30;99.90
5792;DHT22;2922;53.482;10.006;2023-03-08T02:22:12;-0.30;99.90
5792;DHT22;2922;53.482;10.006;2023-03-08T02:24:38;-0.30;99.90
5792;DHT22;2922;53.482;10.006;2023-03-08T02:27:16;-0.30;99.90
5792;DHT22;2922;53.482;10.006;2023-03-08T02:29:42;-0.30;99.90
5792;DHT22;2922;53.482;10.006;2023-03-08T02:32:08;-0.30;99.90
5792;DHT22;2922;53.482;10.006;2023-03-08T02:34:34;-0.30;99.90
5792;DHT22;2922;53.482;10.006;2023-03-08T02:36:59;-0.20;99.90
5792;DHT22;2922;53.482;10.006;2023-03-08T02:39:25;-0.20;99.90
5792;DHT22;2922;53.482;10.006;2023-03-08T02:41:51;-0.20;99.90
5792;DHT22;2922;53.482;10.006;2023-03-08T02:44:16;-0.10;99.90
5792;DHT22;2922;53.482;10.006;2023-03-08T02:46:42;-0.10;99.90
5792;DHT22;2922;53.482;10.006;2023-03-08T02:49:07;-0.10;99.90
5792;DHT22;2922;53.482;10.006;2023-03-08T02:51:33;-0.10;99.90
5792;DHT22;2922;53.482;10.006;2023-03-08T02:53:58;-0.10;99.90
5792;DHT22;2922;53.482;10.006;2023-03-08T02:56:24;-0.10;99.90
5792;DHT22;2922;53.482;10.006;2023-03-08T02:58:49;-0.10;99.90
5792;DHT22;2922;53.482;10.006;2023-03-08T03:01:15;-0.10;99.90
5792;DHT22;2922;53.482;10.006;2023-03-08T03:03:41;0.00;99.90
5792;DHT22;2922;53.482;10.006;2023-03-08T03:06:18;0.00;99.90
5792;DHT22;2922;53.482;10.006;2023-03-08T03:08:44;0.00;99.90
5792;DHT22;2922;53.482;10.006;2023-03-08T03:11:11;0.00;99.90
5792;DHT22;2922;53.482;10.006;2023-03-08T03:13:37;0.00;99.90
5792;DHT22;2922;53.482;10.006;2023-03-08T03:16:07;0.10;99.90
5792;DHT22;2922;53.482;10.006;2023-03-08T03:18:33;0.10;99.90
5792;DHT22;2922;53.482;10.006;2023-03-08T03:21:08;0.10;99.90
5792;DHT22;2922;53.482;10.006;2023-03-08T03:23:34;0.10;99.90
5792;DHT22;2922;53.482;10.006;2023-03-08T03:26:11;0.10;99.90
5792;DHT22;2922;53.482;10.006;2023-03-08T03:28:37;0.10;99.90
5792;DHT22;2922;53.482;10.006;2023-03-08T03:31:08;0.10;99.90
5792;DHT22;2922;53.482;10.006;2023-03-08T03:33:34;0.10;99.90
5792;DHT22;2922;53.482;10.006;2023-03-08T03:36:00;0.10;99.90
5792;DHT22;2922;53.482;10.006;2023-03-08T03:38:26;0.10;99.90
5792;DHT22;2922;53.482;10.006;2023-03-08T03:41:18;0.10;99.90
5792;DHT22;2922;53.482;10.006;2023-03-08T03:43:44;0.10;99.90
5792;DHT22;2922;53.482;10.006;2023-03-08T03:46:12;0.10;99.90
5792;DHT22;2922;53.482;10.006;2023-03-08T03:48:38;0.10;99.90
5792;DHT22;2922;53.482;10.006;2023-03-08T03:51:13;0.10;99.90
5792;DHT22;2922;53.482;10.006;2023-03-08T03:53:39;0.10;99.90
5792;DHT22;2922;53.482;10.006;2023-03-08T03:56:17;0.10;99.90
5792;DHT22;2922;53.482;10.006;2023-03-08T03:58:43;0.10;99.90
5792;DHT22;2922;53.482;10.006;2023-03-08T04:01:17;0.10;99.90
5792;DHT22;2922;53.482;10.006;2023-03-08T04:03:45;0.10;99.90
5792;DHT22;2922;53.482;10.006;2023-03-08T04:06:17;0.10;99.90
5792;DHT22;2922;53.482;10.006;2023-03-08T04:08:43;0.10;99.90
5792;DHT22;2922;53.482;10.006;2023-03-08T04:11:14;0.10;99.90
5792;DHT22;2922;53.482;10.006;2023-03-08T04:13:40;0.10;99.90
5792;DHT22;2922;53.482;10.006;2023-03-08T04:16:20;0.10;99.90
5792;DHT22;2922;53.482;10.006;2023-03-08T04:18:47;0.10;99.90
5792;DHT22;2922;53.482;10.006;2023-03-08T04:21:13;0.10;99.90
5792;DHT22;2922;53.482;10.006;2023-03-08T04:23:39;0.20;99.90
5792;DHT22;2922;53.482;10.006;2023-03-08T04:26:05;0.20;99.90
5792;DHT22;2922;53.482;10.006;2023-03-08T04:28:31;0.20;99.90
5792;DHT22;2922;53.482;10.006;2023-03-08T04:30:58;0.20;99.90
5792;DHT22;2922;53.482;10.006;2023-03-08T04:33:24;0.20;99.90
5792;DHT22;2922;53.482;10.006;2023-03-08T04:35:50;0.30;99.90
5792;DHT22;2922;53.482;10.006;2023-03-08T04:38:16;0.30;99.90
5792;DHT22;2922;53.482;10.006;2023-03-08T04:40:51;0.30;99.90
5792;DHT22;2922;53.482;10.006;2023-03-08T04:43:40;0.30;99.90
5792;DHT22;2922;53.482;10.006;2023-03-08T04:46:07;0.30;99.90
5792;DHT22;2922;53.482;10.006;2023-03-08T04:48:33;0.30;99.90
5792;DHT22;2922;53.482;10.006;2023-03-08T04:51:01;0.30;99.90
5792;DHT22;2922;53.482;10.006;2023-03-08T04:53:28;0.30;99.90
5792;DHT22;2922;53.482;10.006;2023-03-08T04:55:54;0.30;99.90
5792;DHT22;2922;53.482;10.006;2023-03-08T04:58:20;0.40;99.90
5792;DHT22;2922;53.482;10.006;2023-03-08T05:00:46;0.40;99.90
5792;DHT22;2922;53.482;10.006;2023-03-08T05:03:13;0.40;99.90
5792;DHT22;2922;53.482;10.006;2023-03-08T05:05:49;0.40;99.90
5792;DHT22;2922;53.482;10.006;2023-03-08T05:08:16;0.40;99.90
5792;DHT22;2922;53.482;10.006;2023-03-08T05:10:49;0.40;99.90
5792;DHT22;2922;53.482;10.006;2023-03-08T05:13:15;0.40;99.90
5792;DHT22;2922;53.482;10.006;2023-03-08T05:15:41;0.40;99.90
5792;DHT22;2922;53.482;10.006;2023-03-08T05:18:07;0.40;99.90
5792;DHT22;2922;53.482;10.006;2023-03-08T05:20:32;0.40;99.90
5792;DHT22;2922;53.482;10.006;2023-03-08T05:22:58;0.40;99.90
5792;DHT22;2922;53.482;10.006;2023-03-08T05:25:23;0.40;99.90
5792;DHT22;2922;53.482;10.006;2023-03-08T05:27:49;0.30;99.90
5792;DHT22;2922;53.482;10.006;2023-03-08T05:30:14;0.40;99.90
5792;DHT22;2922;53.482;10.006;2023-03-08T05:32:40;0.40;99.90
5792;DHT22;2922;53.482;10.006;2023-03-08T05:35:06;0.40;99.90
5792;DHT22;2922;53.482;10.006;2023-03-08T05:37:31;0.40;99.90
5792;DHT22;2922;53.482;10.006;2023-03-08T05:39:57;0.40;99.90
5792;DHT22;2922;53.482;10.006;2023-03-08T05:42:22;0.40;99.90
5792;DHT22;2922;53.482;10.006;2023-03-08T05:44:48;0.40;99.90
5792;DHT22;2922;53.482;10.006;2023-03-08T05:47:13;0.40;99.90
5792;DHT22;2922;53.482;10.006;2023-03-08T05:49:39;0.40;99.90
5792;DHT22;2922;53.482;10.006;2023-03-08T05:52:05;0.30;99.90
5792;DHT22;2922;53.482;10.006;2023-03-08T05:54:30;0.40;99.90
5792;DHT22;2922;53.482;10.006;2023-03-08T05:56:56;0.40;99.90
5792;DHT22;2922;53.482;10.006;2023-03-08T05:59:21;0.40;99.90
5792;DHT22;2922;53.482;10.006;2023-03-08T06:01:47;0.40;99.90
5792;DHT22;2922;53.482;10.006;2023-03-08T06:04:13;0.40;99.90
5792;DHT22;2922;53.482;10.006;2023-03-08T06:06:38;0.40;99.90
5792;DHT22;2922;53.482;10.006;2023-03-08T06:09:04;0.40;99.90
5792;DHT22;2922;53.482;10.006;2023-03-08T06:11:30;0.40;99.90
5792;DHT22;2922;53.482;10.006;2023-03-08T06:13:55;0.40;99.90
5792;DHT22;2922;53.482;10.006;2023-03-08T06:16:21;0.40;99.90
5792;DHT22;2922;53.482;10.006;2023-03-08T06:18:46;0.40;99.90
5792;DHT22;2922;53.482;10.006;2023-03-08T06:21:15;0.40;99.90
5792;DHT22;2922;53.482;10.006;2023-03-08T06:23:41;0.40;99.90
5792;DHT22;2922;53.482;10.006;2023-03-08T06:26:08;0.50;99.90
5792;DHT22;2922;53.482;10.006;2023-03-08T06:28:34;0.50;99.90
5792;DHT22;2922;53.482;10.006;2023-03-08T06:31:00;0.50;99.90
5792;DHT22;2922;53.482;10.006;2023-03-08T06:33:28;0.50;99.90
5792;DHT22;2922;53.482;10.006;2023-03-08T06:36:16;0.50;99.90
5792;DHT22;2922;53.482;10.006;2023-03-08T06:38:42;0.50;99.90
5792;DHT22;2922;53.482;10.006;2023-03-08T06:41:09;0.50;99.90
5792;DHT22;2922;53.482;10.006;2023-03-08T06:43:35;0.50;99.90
5792;DHT22;2922;53.482;10.006;2023-03-08T06:46:10;0.50;99.90
5792;DHT22;2922;53.482;10.006;2023-03-08T06:48:36;0.50;99.90
5792;DHT22;2922;53.482;10.006;2023-03-08T06:51:03;0.50;99.90
5792;DHT22;2922;53.482;10.006;2023-03-08T06:53:29;0.50;99.90
5792;DHT22;2922;53.482;10.006;2023-03-08T06:55:54;0.60;99.90
5792;DHT22;2922;53.482;10.006;2023-03-08T06:58:20;0.60;99.90
5792;DHT22;2922;53.482;10.006;2023-03-08T07:00:46;0.60;99.90
5792;DHT22;2922;53.482;10.006;2023-03-08T07:03:12;0.60;99.90
5792;DHT22;2922;53.482;10.006;2023-03-08T07:05:38;0.60;99.90
5792;DHT22;2922;53.482;10.006;2023-03-08T07:08:04;0.60;99.90
5792;DHT22;2922;53.482;10.006;2023-03-08T07:10:29;0.70;99.90
5792;DHT22;2922;53.482;10.006;2023-03-08T07:12:55;0.70;99.90
5792;DHT22;2922;53.482;10.006;2023-03-08T07:15:22;0.70;99.90
5792;DHT22;2922;53.482;10.006;2023-03-08T07:17:49;0.70;99.90
5792;DHT22;2922;53.482;10.006;2023-03-08T07:20:17;0.70;99.90
5792;DHT22;2922;53.482;10.006;2023-03-08T07:22:44;0.70;99.90
5792;DHT22;2922;53.482;10.006;2023-03-08T07:25:11;0.80;99.90
5792;DHT22;2922;53.482;10.006;2023-03-08T07:27:37;0.80;99.90
5792;DHT22;2922;53.482;10.006;2023-03-08T07:30:03;0.80;99.90
5792;DHT22;2922;53.482;10.006;2023-03-08T07:32:28;0.90;99.90
5792;DHT22;2922;53.482;10.006;2023-03-08T07:34:55;1.00;99.90
5792;DHT22;2922;53.482;10.006;2023-03-08T07:37:20;1.00;99.90
5792;DHT22;2922;53.482;10.006;2023-03-08T07:39:46;1.00;99.90
5792;DHT22;2922;53.482;10.006;2023-03-08T07:42:12;1.00;99.90
5792;DHT22;2922;53.482;10.006;2023-03-08T07:44:37;1.00;99.90
5792;DHT22;2922;53.482;10.006;2023-03-08T07:47:07;1.00;99.90
5792;DHT22;2922;53.482;10.006;2023-03-08T07:49:34;1.00;99.90
5792;DHT22;2922;53.482;10.006;2023-03-08T07:52:00;1.00;99.90
5792;DHT22;2922;53.482;10.006;2023-03-08T07:54:25;1.00;99.90
5792;DHT22;2922;53.482;10.006;2023-03-08T07:56:52;1.00;99.90
5792;DHT22;2922;53.482;10.006;2023-03-08T07:59:17;1.10;99.90
5792;DHT22;2922;53.482;10.006;2023-03-08T08:01:43;1.10;99.90
5792;DHT22;2922;53.482;10.006;2023-03-08T08:04:08;1.20;99.90
5792;DHT22;2922;53.482;10.006;2023-03-08T08:06:37;1.20;99.90
5792;DHT22;2922;53.482;10.006;2023-03-08T08:09:02;1.30;99.90
5792;DHT22;2922;53.482;10.006;2023-03-08T08:11:28;1.30;99.90
5792;DHT22;2922;53.482;10.006;2023-03-08T08:13:54;1.30;99.90
5792;DHT22;2922;53.482;10.006;2023-03-08T08:16:19;1.40;99.90
5792;DHT22;2922;53.482;10.006;2023-03-08T08:18:45;1.40;99.90
5792;DHT22;2922;53.482;10.006;2023-03-08T08:21:13;1.40;99.90
5792;DHT22;2922;53.482;10.006;2023-03-08T08:23:40;1.50;99.90
5792;DHT22;2922;53.482;10.006;2023-03-08T08:26:08;1.50;99.90
5792;DHT22;2922;53.482;10.006;2023-03-08T08:28:35;1.60;99.90
5792;DHT22;2922;53.482;10.006;2023-03-08T08:31:04;1.70;99.90
5792;DHT22;2922;53.482;10.006;2023-03-08T08:33:31;1.70;99.90
5792;DHT22;2922;53.482;10.006;2023-03-08T08:35:57;1.70;99.90
5792;DHT22;2922;53.482;10.006;2023-03-08T08:38:23;1.70;99.90
5792;DHT22;2922;53.482;10.006;2023-03-08T08:40:49;1.70;99.90
5792;DHT22;2922;53.482;10.006;2023-03-08T08:43:15;1.80;99.90
5792;DHT22;2922;53.482;10.006;2023-03-08T08:45:45;1.80;99.90
5792;DHT22;2922;53.482;10.006;2023-03-08T08:48:12;1.90;99.90
5792;DHT22;2922;53.482;10.006;2023-03-08T08:50:39;1.90;99.90
5792;DHT22;2922;53.482;10.006;2023-03-08T08:53:05;1.90;99.90
5792;DHT22;2922;53.482;10.006;2023-03-08T08:55:30;1.90;99.90
5792;DHT22;2922;53.482;10.006;2023-03-08T08:57:56;2.00;99.90
5792;DHT22;2922;53.482;10.006;2023-03-08T09:00:21;2.00;99.90
5792;DHT22;2922;53.482;10.006;2023-03-08T09:02:47;2.10;99.90
5792;DHT22;2922;53.482;10.006;2023-03-08T09:05:13;2.10;99.90
5792;DHT22;2922;53.482;10.006;2023-03-08T09:07:38;2.00;99.90
5792;DHT22;2922;53.482;10.006;2023-03-08T09:10:04;2.00;99.90
5792;DHT22;2922;53.482;10.006;2023-03-08T09:12:30;2.10;99.90
5792;DHT22;2922;53.482;10.006;2023-03-08T09:14:56;2.20;99.90
5792;DHT22;2922;53.482;10.006;2023-03-08T09:17:21;2.20;99.90
5792;DHT22;2922;53.482;10.006;2023-03-08T09:19:47;2.20;99.90
5792;DHT22;2922;53.482;10.006;2023-03-08T09:22:12;2.20;99.90
5792;DHT22;2922;53.482;10.006;2023-03-08T09:24:38;2.20;99.90
5792;DHT22;2922;53.482;10.006;2023-03-08T09:27:05;2.20;99.90
5792;DHT22;2922;53.482;10.006;2023-03-08T09:29:30;2.30;99.90
5792;DHT22;2922;53.482;10.006;2023-03-08T09:31:57;2.20;99.90
5792;DHT22;2922;53.482;10.006;2023-03-08T09:34:22;2.20;99.90
5792;DHT22;2922;53.482;10.006;2023-03-08T09:36:48;2.20;99.90
5792;DHT22;2922;53.482;10.006;2023-03-08T09:39:13;2.20;99.90
5792;DHT22;2922;53.482;10.006;2023-03-08T09:41:59;2.30;99.90
5792;DHT22;2922;53.482;10.006;2023-03-08T09:49:58;2.50;99.90
5792;DHT22;2922;53.482;10.006;2023-03-08T09:52:36;2.50;99.90
5792;DHT22;2922;53.482;10.006;2023-03-08T09:55:04;2.50;99.90
5792;DHT22;2922;53.482;10.006;2023-03-08T09:57:36;2.50;99.90
5792;DHT22;2922;53.482;10.006;2023-03-08T10:00:06;2.50;99.90
5792;DHT22;2922;53.482;10.006;2023-03-08T10:02:51;2.50;99.90
5792;DHT22;2922;53.482;10.006;2023-03-08T10:05:24;2.50;99.90
5792;DHT22;2922;53.482;10.006;2023-03-08T10:08:14;2.50;99.90
5792;DHT22;2922;53.482;10.006;2023-03-08T10:11:02;2.50;99.90
5792;DHT22;2922;53.482;10.006;2023-03-08T10:13:37;2.50;99.90
5792;DHT22;2922;53.482;10.006;2023-03-08T10:16:22;2.60;99.90
5792;DHT22;2922;53.482;10.006;2023-03-08T10:19:19;2.60;99.90
5792;DHT22;2922;53.482;10.006;2023-03-08T10:21:46;2.60;99.90
5792;DHT22;2922;53.482;10.006;2023-03-08T10:24:26;2.60;99.90
5792;DHT22;2922;53.482;10.006;2023-03-08T10:27:05;2.60;99.90
5792;DHT22;2922;53.482;10.006;2023-03-08T10:29:33;2.70;99.90
5792;DHT22;2922;53.482;10.006;2023-03-08T10:31:59;2.70;99.90
5792;DHT22;2922;53.482;10.006;2023-03-08T10:34:29;2.80;99.90
5792;DHT22;2922;53.482;10.006;2023-03-08T10:37:00;2.80;99.90
5792;DHT22;2922;53.482;10.006;2023-03-08T10:39:26;2.80;99.90
5792;DHT22;2922;53.482;10.006;2023-03-08T10:41:58;2.90;99.90
5792;DHT22;2922;53.482;10.006;2023-03-08T10:44:43;2.90;99.90
5792;DHT22;2922;53.482;10.006;2023-03-08T10:49:44;3.10;99.90
5792;DHT22;2922;53.482;10.006;2023-03-08T10:52:25;3.10;99.90
5792;DHT22;2922;53.482;10.006;2023-03-08T10:55:01;3.10;99.90
5792;DHT22;2922;53.482;10.006;2023-03-08T10:57:27;3.10;99.90
5792;DHT22;2922;53.482;10.006;2023-03-08T10:59:56;3.10;99.90
5792;DHT22;2922;53.482;10.006;2023-03-08T11:02:22;3.00;99.90
5792;DHT22;2922;53.482;10.006;2023-03-08T11:04:56;3.10;99.90
5792;DHT22;2922;53.482;10.006;2023-03-08T11:07:28;3.10;99.90
5792;DHT22;2922;53.482;10.006;2023-03-08T11:10:16;3.30;99.90
5792;DHT22;2922;53.482;10.006;2023-03-08T11:12:43;3.40;99.90
5792;DHT22;2922;53.482;10.006;2023-03-08T11:15:17;3.50;99.90
5792;DHT22;2922;53.482;10.006;2023-03-08T11:18:07;3.50;99.90
5792;DHT22;2922;53.482;10.006;2023-03-08T11:20:48;3.60;99.90
5792;DHT22;2922;53.482;10.006;2023-03-08T11:23:47;3.70;99.90
5792;DHT22;2922;53.482;10.006;2023-03-08T11:26:33;3.80;99.90
5792;DHT22;2922;53.482;10.006;2023-03-08T11:29:21;3.70;99.90
5792;DHT22;2922;53.482;10.006;2023-03-08T11:40:23;4.00;99.90
5792;DHT22;2922;53.482;10.006;2023-03-08T11:48:30;4.30;99.90
5792;DHT22;2922;53.482;10.006;2023-03-08T11:53:54;5.10;99.90
5792;DHT22;2922;53.482;10.006;2023-03-08T11:56:43;5.40;99.90
5792;DHT22;2922;53.482;10.006;2023-03-08T11:59:26;5.50;99.90
5792;DHT22;2922;53.482;10.006;2023-03-08T12:05:19;5.40;99.90
5792;DHT22;2922;53.482;10.006;2023-03-08T12:07:32;5.40;99.90
5792;DHT22;2922;53.482;10.006;2023-03-08T12:10:19;5.30;99.90
5792;DHT22;2922;53.482;10.006;2023-03-08T12:12:54;5.20;99.90
5792;DHT22;2922;53.482;10.006;2023-03-08T12:15:43;5.10;99.90
5792;DHT22;2922;53.482;10.006;2023-03-08T12:18:19;5.20;99.90
5792;DHT22;2922;53.482;10.006;2023-03-08T12:20:47;5.20;99.90
5792;DHT22;2922;53.482;10.006;2023-03-08T12:23:20;5.30;99.90
5792;DHT22;2922;53.482;10.006;2023-03-08T12:25:53;5.20;99.90
5792;DHT22;2922;53.482;10.006;2023-03-08T12:31:07;5.10;99.90
5792;DHT22;2922;53.482;10.006;2023-03-08T12:33:35;5.10;99.90
5792;DHT22;2922;53.482;10.006;2023-03-08T12:36:03;5.20;99.90
5792;DHT22;2922;53.482;10.006;2023-03-08T12:40:58;5.00;99.90
5792;DHT22;2922;53.482;10.006;2023-03-08T12:51:39;5.40;99.90
5792;DHT22;2922;53.482;10.006;2023-03-08T13:04:34;5.50;99.90
5792;DHT22;2922;53.482;10.006;2023-03-08T13:07:30;5.50;99.90
5792;DHT22;2922;53.482;10.006;2023-03-08T13:10:20;5.50;99.90
5792;DHT22;2922;53.482;10.006;2023-03-08T13:12:58;5.60;99.90
5792;DHT22;2922;53.482;10.006;2023-03-08T13:15:26;5.50;99.90
5792;DHT22;2922;53.482;10.006;2023-03-08T13:17:55;5.50;99.90
5792;DHT22;2922;53.482;10.006;2023-03-08T13:30:41;6.00;99.90
5792;DHT22;2922;53.482;10.006;2023-03-08T13:33:12;6.10;99.90
5792;DHT22;2922;53.482;10.006;2023-03-08T13:35:38;6.30;99.90
5792;DHT22;2922;53.482;10.006;2023-03-08T13:38:04;6.20;99.90
5792;DHT22;2922;53.482;10.006;2023-03-08T13:40:30;6.40;99.90
5792;DHT22;2922;53.482;10.006;2023-03-08T13:43:01;6.50;99.90
5792;DHT22;2922;53.482;10.006;2023-03-08T13:45:28;6.60;99.90
5792;DHT22;2922;53.482;10.006;2023-03-08T13:47:57;6.70;99.90
5792;DHT22;2922;53.482;10.006;2023-03-08T13:50:34;6.80;99.90
5792;DHT22;2922;53.482;10.006;2023-03-08T13:53:02;7.00;99.90
5792;DHT22;2922;53.482;10.006;2023-03-08T13:55:33;7.10;99.90
5792;DHT22;2922;53.482;10.006;2023-03-08T13:58:00;7.00;99.90
5792;DHT22;2922;53.482;10.006;2023-03-08T14:00:34;7.10;99.90
5792;DHT22;2922;53.482;10.006;2023-03-08T14:03:02;7.10;99.90
5792;DHT22;2922;53.482;10.006;2023-03-08T14:05:32;7.20;99.90
5792;DHT22;2922;53.482;10.006;2023-03-08T14:08:01;7.30;99.90
5792;DHT22;2922;53.482;10.006;2023-03-08T14:10:39;7.30;99.90
5792;DHT22;2922;53.482;10.006;2023-03-08T14:13:17;7.20;99.90
5792;DHT22;2922;53.482;10.006;2023-03-08T14:15:49;7.10;99.90
5792;DHT22;2922;53.482;10.006;2023-03-08T14:18:37;7.10;99.90
5792;DHT22;2922;53.482;10.006;2023-03-08T14:21:26;7.00;99.90
5792;DHT22;2922;53.482;10.006;2023-03-08T14:23:56;7.00;99.90
5792;DHT22;2922;53.482;10.006;2023-03-08T14:26:32;6.90;99.90
5792;DHT22;2922;53.482;10.006;2023-03-08T14:34:35;6.80;99.90
5792;DHT22;2922;53.482;10.006;2023-03-08T14:39:50;6.80;99.90
5792;DHT22;2922;53.482;10.006;2023-03-08T14:42:32;6.80;99.90
5792;DHT22;2922;53.482;10.006;2023-03-08T14:45:21;6.80;99.90
5792;DHT22;2922;53.482;10.006;2023-03-08T14:47:59;6.70;99.90
5792;DHT22;2922;53.482;10.006;2023-03-08T14:50:30;6.70;99.90
5792;DHT22;2922;53.482;10.006;2023-03-08T14:52:58;6.70;99.90
5792;DHT22;2922;53.482;10.006;2023-03-08T14:55:30;6.70;99.90
5792;DHT22;2922;53.482;10.006;2023-03-08T14:57:59;6.60;99.90
5792;DHT22;2922;53.482;10.006;2023-03-08T15:00:26;6.50;99.90
5792;DHT22;2922;53.482;10.006;2023-03-08T15:02:56;6.40;99.90
5792;DHT22;2922;53.482;10.006;2023-03-08T15:05:23;6.40;99.90
5792;DHT22;2922;53.482;10.006;2023-03-08T15:07:49;6.40;99.90
5792;DHT22;2922;53.482;10.006;2023-03-08T15:10:36;6.40;99.90
5792;DHT22;2922;53.482;10.006;2023-03-08T15:13:08;6.30;99.90
5792;DHT22;2922;53.482;10.006;2023-03-08T15:15:36;6.20;99.90
5792;DHT22;2922;53.482;10.006;2023-03-08T15:18:01;6.20;99.90
5792;DHT22;2922;53.482;10.006;2023-03-08T15:20:27;6.20;99.90
5792;DHT22;2922;53.482;10.006;2023-03-08T15:22:58;6.20;99.90
5792;DHT22;2922;53.482;10.006;2023-03-08T15:25:32;6.10;99.90
5792;DHT22;2922;53.482;10.006;2023-03-08T15:27:58;6.10;99.90
5792;DHT22;2922;53.482;10.006;2023-03-08T15:30:26;6.10;99.90
5792;DHT22;2922;53.482;10.006;2023-03-08T15:32:53;6.00;99.90
5792;DHT22;2922;53.482;10.006;2023-03-08T15:35:19;5.90;99.90
5792;DHT22;2922;53.482;10.006;2023-03-08T15:37:45;5.80;99.90
5792;DHT22;2922;53.482;10.006;2023-03-08T15:40:16;5.80;99.90
5792;DHT22;2922;53.482;10.006;2023-03-08T15:42:42;5.80;99.90
5792;DHT22;2922;53.482;10.006;2023-03-08T15:45:09;5.80;99.90
5792;DHT22;2922;53.482;10.006;2023-03-08T15:47:35;5.80;99.90
5792;DHT22;2922;53.482;10.006;2023-03-08T15:50:00;5.80;99.90
5792;DHT22;2922;53.482;10.006;2023-03-08T15:52:27;5.70;99.90
5792;DHT22;2922;53.482;10.006;2023-03-08T15:54:53;5.70;99.90
5792;DHT22;2922;53.482;10.006;2023-03-08T15:57:19;5.70;99.90
5792;DHT22;2922;53.482;10.006;2023-03-08T15:59:44;5.60;99.90
5792;DHT22;2922;53.482;10.006;2023-03-08T16:02:13;5.60;99.90
5792;DHT22;2922;53.482;10.006;2023-03-08T16:04:39;5.50;99.90
5792;DHT22;2922;53.482;10.006;2023-03-08T16:07:11;5.50;99.90
5792;DHT22;2922;53.482;10.006;2023-03-08T16:09:38;5.40;99.90
5792;DHT22;2922;53.482;10.006;2023-03-08T16:12:03;5.40;99.90
5792;DHT22;2922;53.482;10.006;2023-03-08T16:14:29;5.30;99.90
5792;DHT22;2922;53.482;10.006;2023-03-08T16:16:55;5.30;99.90
5792;DHT22;2922;53.482;10.006;2023-03-08T16:19:20;5.30;99.90
5792;DHT22;2922;53.482;10.006;2023-03-08T16:21:46;5.20;99.90
5792;DHT22;2922;53.482;10.006;2023-03-08T16:24:12;5.20;99.90
5792;DHT22;2922;53.482;10.006;2023-03-08T16:26:37;5.10;99.90
5792;DHT22;2922;53.482;10.006;2023-03-08T16:29:03;5.20;99.90
5792;DHT22;2922;53.482;10.006;2023-03-08T16:31:28;5.10;99.90
5792;DHT22;2922;53.482;10.006;2023-03-08T16:33:57;5.10;99.90
5792;DHT22;2922;53.482;10.006;2023-03-08T16:36:25;5.10;99.90
5792;DHT22;2922;53.482;10.006;2023-03-08T16:38:51;5.10;99.90
5792;DHT22;2922;53.482;10.006;2023-03-08T16:41:16;5.00;99.90
5792;DHT22;2922;53.482;10.006;2023-03-08T16:43:42;4.90;99.90
5792;DHT22;2922;53.482;10.006;2023-03-08T16:46:13;4.80;99.90
5792;DHT22;2922;53.482;10.006;2023-03-08T16:48:39;4.80;99.90
5792;DHT22;2922;53.482;10.006;2023-03-08T16:51:05;4.80;99.90
5792;DHT22;2922;53.482;10.006;2023-03-08T16:53:30;4.70;99.90
5792;DHT22;2922;53.482;10.006;2023-03-08T16:55:56;4.70;99.90
5792;DHT22;2922;53.482;10.006;2023-03-08T16:58:21;4.60;99.90
5792;DHT22;2922;53.482;10.006;2023-03-08T17:00:47;4.60;99.90
5792;DHT22;2922;53.482;10.006;2023-03-08T17:03:13;4.50;99.90
5792;DHT22;2922;53.482;10.006;2023-03-08T17:05:40;4.50;99.90
5792;DHT22;2922;53.482;10.006;2023-03-08T17:08:07;4.50;99.90
5792;DHT22;2922;53.482;10.006;2023-03-08T17:10:40;4.50;99.90
5792;DHT22;2922;53.482;10.006;2023-03-08T17:13:06;4.40;99.90
5792;DHT22;2922;53.482;10.006;2023-03-08T17:15:43;4.40;99.90
5792;DHT22;2922;53.482;10.006;2023-03-08T17:18:09;4.40;99.90
5792;DHT22;2922;53.482;10.006;2023-03-08T17:20:39;4.30;99.90
5792;DHT22;2922;53.482;10.006;2023-03-08T17:23:06;4.30;99.90